Time;durP1;ratioP1;P1;durP2;ratioP2;P2;SDS_P1;SDS_P2;PMS_P1;PMS_P2;Temp;Humidity;BMP_temperature;BMP_pressure;BME280_temperature;BME280_humidity;BME280_pressure;Samples;Min_cycle;Max_cycle;Signal;HPM_P1;HPM_P2
2021/12/30 00:02:30;;;;;;;94.37;35.50;;;5.30;99.90;;;;;;5150889;28;20428;-52
2021/12/30 00:05:00;;;;;;;79.77;31.57;;;5.30;99.90;;;;;;5140714;28;20550;-50
2021/12/30 00:07:31;;;;;;;79.90;33.90;;;5.40;99.90;;;;;;5156019;28;20518;-51
2021/12/30 00:10:04;;;;;;;73.70;30.73;;;5.50;99.90;;;;;;5140395;28;20192;-52
2021/12/30 00:12:34;;;;;;;67.13;31.37;;;5.50;99.90;;;;;;5146252;28;20187;-51
2021/12/30 00:15:08;;;;;;;61.67;29.07;;;5.40;99.90;;;;;;5148505;28;20448;-51
2021/12/30 00:17:38;;;;;;;71.83;29.20;;;5.50;99.90;;;;;;5157187;28;20183;-52
2021/12/30 00:20:10;;;;;;;66.40;29.40;;;5.70;99.90;;;;;;5152829;28;20446;-50
2021/12/30 00:22:42;;;;;;;63.63;30.07;;;5.60;99.90;;;;;;5156959;28;20189;-52
2021/12/30 00:25:13;;;;;;;53.97;27.60;;;5.50;99.90;;;;;;5156712;28;20874;-51
2021/12/30 00:27:44;;;;;;;50.73;26.97;;;5.50;99.90;;;;;;5155966;28;20489;-51
2021/12/30 00:30:14;;;;;;;50.60;24.77;;;5.50;99.90;;;;;;5152353;28;20530;-51
2021/12/30 00:32:45;;;;;;;54.03;26.10;;;5.70;99.90;;;;;;5142640;28;20215;-51
2021/12/30 00:35:15;;;;;;;44.93;23.83;;;5.70;99.90;;;;;;5136364;28;20278;-52
2021/12/30 00:37:46;;;;;;;46.47;23.37;;;5.70;99.90;;;;;;5137115;28;20199;-51
2021/12/30 00:40:16;;;;;;;46.43;22.37;;;5.60;99.90;;;;;;5141253;28;20220;-51
2021/12/30 00:42:47;;;;;;;45.33;22.40;;;5.70;99.90;;;;;;5141258;28;20264;-49
2021/12/30 00:45:18;;;;;;;45.60;23.17;;;5.60;99.90;;;;;;5158472;28;20629;-50
2021/12/30 00:47:48;;;;;;;36.90;21.70;;;5.90;99.90;;;;;;5139017;28;20263;-50
2021/12/30 00:50:19;;;;;;;39.90;23.70;;;5.80;99.90;;;;;;5137581;28;20645;-50
2021/12/30 00:52:50;;;;;;;41.73;23.03;;;5.70;99.90;;;;;;5136260;28;20188;-51
2021/12/30 00:55:20;;;;;;;51.60;27.27;;;5.70;99.90;;;;;;5141946;28;20677;-51
2021/12/30 00:57:51;;;;;;;44.70;24.53;;;5.80;99.90;;;;;;5163916;28;20192;-51
2021/12/30 01:00:22;;;;;;;34.47;19.73;;;5.90;99.90;;;;;;5156564;28;20208;-50
2021/12/30 01:02:53;;;;;;;32.17;20.20;;;5.80;99.90;;;;;;5158654;28;20185;-50
2021/12/30 01:05:24;;;;;;;33.73;21.50;;;6.10;99.90;;;;;;5156024;28;20541;-51
2021/12/30 01:07:56;;;;;;;37.00;22.23;;;6.10;99.90;;;;;;5147665;28;20437;-51
2021/12/30 01:10:28;;;;;;;44.33;23.43;;;6.00;99.90;;;;;;5144745;28;20189;-51
2021/12/30 01:13:04;;;;;;;35.90;21.27;;;6.10;99.90;;;;;;5148381;28;20981;-51
2021/12/30 01:15:55;;;;;;;33.60;20.03;;;5.90;99.90;;;;;;5160870;28;20926;-51
2021/12/30 01:18:42;;;;;;;42.43;23.10;;;5.90;99.90;;;;;;5163358;28;20435;-51
2021/12/30 01:21:13;;;;;;;37.20;20.80;;;5.90;99.90;;;;;;5156579;28;20855;-51
2021/12/30 01:23:44;;;;;;;31.23;19.10;;;5.80;99.90;;;;;;5153378;28;20424;-51
2021/12/30 01:26:14;;;;;;;31.43;17.03;;;5.80;99.90;;;;;;5152567;28;20494;-51
2021/12/30 01:28:45;;;;;;;29.73;16.83;;;5.70;99.90;;;;;;5150853;28;20177;-51
2021/12/30 01:31:17;;;;;;;28.03;18.07;;;5.80;99.90;;;;;;5137560;28;20189;-51
2021/12/30 01:33:48;;;;;;;26.47;17.23;;;5.70;99.90;;;;;;5156209;28;20190;-51
2021/12/30 01:36:21;;;;;;;30.40;17.40;;;5.80;99.90;;;;;;5134792;28;20479;-51
2021/12/30 01:38:52;;;;;;;31.37;17.60;;;5.80;99.90;;;;;;5139900;28;20672;-49
2021/12/30 01:41:23;;;;;;;24.93;16.60;;;6.00;99.90;;;;;;5148101;28;20548;-50
2021/12/30 01:43:54;;;;;;;26.00;16.57;;;6.00;99.90;;;;;;5148510;28;20512;-51
2021/12/30 01:46:25;;;;;;;29.13;17.93;;;5.90;99.90;;;;;;5132354;28;20239;-51
2021/12/30 01:48:58;;;;;;;28.87;18.40;;;5.90;99.90;;;;;;5163328;28;20180;-52
2021/12/30 01:51:29;;;;;;;27.40;17.80;;;6.00;99.90;;;;;;5147971;28;20204;-51
2021/12/30 01:54:00;;;;;;;27.53;17.20;;;5.90;99.90;;;;;;5152297;28;20810;-52
2021/12/30 01:56:31;;;;;;;26.10;16.90;;;5.80;99.90;;;;;;5136734;28;20259;-50
2021/12/30 01:59:03;;;;;;;32.50;20.37;;;5.60;99.90;;;;;;5144245;28;20193;-51
2021/12/30 02:01:34;;;;;;;25.57;16.93;;;5.80;99.90;;;;;;5157070;28;20551;-51
2021/12/30 02:04:05;;;;;;;28.43;17.93;;;5.80;99.90;;;;;;5160165;28;20451;-52
2021/12/30 02:06:35;;;;;;;29.67;18.40;;;5.70;99.90;;;;;;5155931;28;20944;-51
2021/12/30 02:09:06;;;;;;;29.53;16.30;;;5.90;99.90;;;;;;5149192;28;20289;-50
2021/12/30 02:11:36;;;;;;;26.37;15.60;;;5.80;99.90;;;;;;5129253;28;20576;-50
2021/12/30 02:14:07;;;;;;;26.90;17.00;;;5.80;99.90;;;;;;5141394;28;20212;-51
2021/12/30 02:16:38;;;;;;;28.40;17.37;;;5.80;99.90;;;;;;5151719;28;20235;-52
2021/12/30 02:19:08;;;;;;;23.27;15.80;;;5.80;99.90;;;;;;5143137;28;20189;-49
2021/12/30 02:21:39;;;;;;;26.53;15.10;;;5.70;99.90;;;;;;5149391;28;20669;-50
2021/12/30 02:24:10;;;;;;;24.13;16.40;;;5.70;99.90;;;;;;5143112;28;20596;-51
2021/12/30 02:26:40;;;;;;;26.53;15.37;;;5.80;99.90;;;;;;5149172;28;20202;-56
2021/12/30 02:29:11;;;;;;;24.00;16.63;;;5.80;99.90;;;;;;5156352;28;20828;-50
2021/12/30 02:31:42;;;;;;;24.10;16.30;;;5.80;99.90;;;;;;5159131;28;20177;-51
2021/12/30 02:34:12;;;;;;;21.83;14.67;;;5.80;99.90;;;;;;5117315;28;20266;-51
2021/12/30 02:36:43;;;;;;;25.70;15.20;;;5.80;99.90;;;;;;5153506;23;20302;-48
2021/12/30 02:39:16;;;;;;;26.33;16.40;;;5.90;99.90;;;;;;5160088;28;20177;-49
2021/12/30 02:41:47;;;;;;;29.30;16.70;;;5.90;99.90;;;;;;5128563;28;20520;-49
2021/12/30 02:44:18;;;;;;;24.03;16.30;;;5.90;99.90;;;;;;5147016;28;20457;-49
2021/12/30 02:46:54;;;;;;;21.83;15.50;;;5.90;99.90;;;;;;5136018;28;20209;-49
2021/12/30 02:49:24;;;;;;;25.40;16.97;;;6.00;99.90;;;;;;5141196;28;20559;-48
2021/12/30 02:51:55;;;;;;;22.23;14.10;;;5.90;99.90;;;;;;5145519;28;20440;-50
2021/12/30 02:54:25;;;;;;;26.07;16.67;;;6.00;99.90;;;;;;5144911;28;20283;-49
2021/12/30 02:56:56;;;;;;;28.50;17.40;;;6.10;99.90;;;;;;5135741;28;20228;-50
2021/12/30 02:59:26;;;;;;;21.47;15.40;;;6.00;99.90;;;;;;5142726;28;20315;-49
2021/12/30 03:01:57;;;;;;;23.97;16.17;;;6.10;99.90;;;;;;5143900;28;20209;-49
2021/12/30 03:04:29;;;;;;;24.13;16.57;;;6.10;99.90;;;;;;5145426;28;20178;-50
2021/12/30 03:07:00;;;;;;;24.37;16.17;;;6.10;99.90;;;;;;5159917;28;20259;-50
2021/12/30 03:09:32;;;;;;;31.70;17.33;;;6.10;99.90;;;;;;5144936;28;20816;-49
2021/12/30 03:12:03;;;;;;;28.30;18.60;;;6.20;99.90;;;;;;5137385;28;20197;-49
2021/12/30 03:14:38;;;;;;;27.73;18.07;;;6.20;99.90;;;;;;5145999;28;20421;-50
2021/12/30 03:17:09;;;;;;;24.37;15.60;;;6.20;99.90;;;;;;5145865;28;20523;-49
2021/12/30 03:19:40;;;;;;;26.13;18.20;;;6.20;99.90;;;;;;5145201;28;20560;-50
2021/12/30 03:22:12;;;;;;;25.63;16.73;;;6.20;99.90;;;;;;5144116;28;20216;-50
2021/12/30 03:24:42;;;;;;;25.33;16.97;;;6.30;99.90;;;;;;5139530;28;20189;-49
2021/12/30 03:27:13;;;;;;;34.43;18.70;;;6.30;99.90;;;;;;5142587;28;20491;-49
2021/12/30 03:29:43;;;;;;;22.83;16.57;;;6.20;99.90;;;;;;5145713;28;20186;-49
2021/12/30 03:32:14;;;;;;;23.07;15.33;;;6.30;99.90;;;;;;5145106;28;20253;-49
2021/12/30 03:34:45;;;;;;;27.00;15.50;;;6.30;99.90;;;;;;5143460;28;20181;-50
2021/12/30 03:37:15;;;;;;;30.33;16.73;;;6.30;99.90;;;;;;5180150;28;20533;-49
2021/12/30 03:39:48;;;;;;;25.70;16.00;;;6.30;99.90;;;;;;5174149;28;20195;-49
2021/12/30 03:42:19;;;;;;;20.13;15.10;;;6.30;99.90;;;;;;5183656;28;20196;-48
2021/12/30 03:44:49;;;;;;;25.90;14.43;;;6.40;99.90;;;;;;5185543;28;20765;-50
2021/12/30 03:47:20;;;;;;;26.53;15.97;;;6.40;99.90;;;;;;5182827;28;20211;-49
2021/12/30 03:49:52;;;;;;;21.70;14.80;;;6.40;99.90;;;;;;5166632;28;20587;-49
2021/12/30 03:52:28;;;;;;;13.80;11.90;;;6.40;99.90;;;;;;5183925;28;20279;-49
2021/12/30 03:54:59;;;;;;;18.23;12.57;;;6.50;99.90;;;;;;5183117;28;20433;-50
2021/12/30 03:57:29;;;;;;;22.13;12.57;;;6.50;99.90;;;;;;5183132;28;20798;-50
2021/12/30 04:00:00;;;;;;;23.03;13.97;;;6.60;99.90;;;;;;5152582;28;20176;-50
2021/12/30 04:02:30;;;;;;;17.43;12.20;;;6.60;99.90;;;;;;5165712;28;20734;-49
2021/12/30 04:05:01;;;;;;;24.17;14.67;;;6.60;99.90;;;;;;5183430;28;20184;-49
2021/12/30 04:07:32;;;;;;;21.33;12.93;;;6.60;99.90;;;;;;5181413;28;20196;-50
2021/12/30 04:10:05;;;;;;;20.07;13.10;;;6.60;99.90;;;;;;5178898;28;20566;-48
2021/12/30 04:12:36;;;;;;;17.93;12.90;;;6.60;99.90;;;;;;5173612;28;20298;-49
2021/12/30 04:15:08;;;;;;;18.90;11.33;;;6.60;99.90;;;;;;5182699;28;20454;-48
2021/12/30 04:17:39;;;;;;;19.30;12.03;;;6.60;99.90;;;;;;5182396;28;20188;-49
2021/12/30 04:20:12;;;;;;;17.83;12.13;;;6.70;99.90;;;;;;5182019;28;20827;-48
2021/12/30 04:22:42;;;;;;;21.27;12.23;;;6.70;99.90;;;;;;5166232;28;20584;-50
2021/12/30 04:25:15;;;;;;;30.80;14.77;;;6.70;99.90;;;;;;5162960;28;20455;-49
2021/12/30 04:27:46;;;;;;;24.57;15.03;;;6.80;99.90;;;;;;5178111;28;20211;-48
2021/12/30 04:30:16;;;;;;;29.40;15.00;;;6.80;99.90;;;;;;5183955;28;20500;-50
2021/12/30 04:32:47;;;;;;;37.40;17.67;;;6.90;99.90;;;;;;5184570;28;20208;-48
2021/12/30 04:35:18;;;;;;;41.10;18.73;;;6.90;99.90;;;;;;5183573;28;20212;-50
2021/12/30 04:37:49;;;;;;;47.20;20.60;;;7.00;99.90;;;;;;5175680;28;20176;-48
2021/12/30 04:40:20;;;;;;;46.30;18.93;;;7.10;99.90;;;;;;5178747;28;20455;-49
2021/12/30 04:42:50;;;;;;;49.33;18.93;;;7.20;99.90;;;;;;5168158;28;20207;-51
2021/12/30 04:45:21;;;;;;;51.57;20.47;;;7.20;99.90;;;;;;5184642;28;20498;-49
2021/12/30 04:47:52;;;;;;;48.23;18.83;;;7.20;99.90;;;;;;5188821;28;20596;-50
2021/12/30 04:50:22;;;;;;;49.93;21.40;;;7.20;99.90;;;;;;5187154;28;20813;-49
2021/12/30 04:52:53;;;;;;;50.70;22.63;;;7.30;99.90;;;;;;5187243;28;20180;-49
2021/12/30 04:55:23;;;;;;;70.63;22.20;;;7.30;99.90;;;;;;5169488;28;20588;-49
2021/12/30 04:57:54;;;;;;;51.93;23.00;;;7.30;99.90;;;;;;5186788;28;20272;-48
2021/12/30 05:00:25;;;;;;;44.50;21.03;;;7.30;99.90;;;;;;5182026;28;20244;-50
2021/12/30 05:05:29;;;;;;;57.57;23.60;;;7.30;99.90;;;;;;5187726;28;20204;-49
2021/12/30 05:07:59;;;;;;;73.20;24.37;;;7.40;99.90;;;;;;5155145;28;20482;-49
2021/12/30 05:10:30;;;;;;;67.17;23.27;;;7.40;99.90;;;;;;5181673;28;20188;-48
2021/12/30 05:13:02;;;;;;;61.87;23.80;;;7.40;99.90;;;;;;5185387;28;20236;-49
2021/12/30 05:15:33;;;;;;;53.77;23.50;;;7.40;99.90;;;;;;5187665;28;20287;-49
2021/12/30 05:18:06;;;;;;;64.47;23.23;;;7.50;99.90;;;;;;5186493;28;20416;-50
2021/12/30 05:20:37;;;;;;;64.30;26.83;;;7.50;99.90;;;;;;5170735;28;20485;-50
2021/12/30 05:23:09;;;;;;;64.93;25.80;;;7.50;99.90;;;;;;5188973;28;20526;-50
2021/12/30 05:25:39;;;;;;;60.00;25.47;;;7.50;99.90;;;;;;5179415;28;20971;-49
2021/12/30 05:28:10;;;;;;;64.77;26.40;;;7.50;99.90;;;;;;5176406;28;20489;-49
2021/12/30 05:30:41;;;;;;;71.60;26.03;;;7.60;99.90;;;;;;5162957;28;20184;-50
2021/12/30 05:33:12;;;;;;;59.97;24.93;;;7.60;99.90;;;;;;5185671;28;20221;-51
2021/12/30 05:35:42;;;;;;;54.10;26.07;;;7.60;99.90;;;;;;5157802;28;20609;-49
2021/12/30 05:38:16;;;;;;;46.53;23.73;;;7.60;99.90;;;;;;5169863;28;20687;-49
2021/12/30 05:40:46;;;;;;;64.87;24.50;;;7.60;99.90;;;;;;5184582;28;20204;-50
2021/12/30 05:43:17;;;;;;;44.60;21.93;;;7.70;99.90;;;;;;5187010;28;20785;-50
2021/12/30 05:45:47;;;;;;;46.90;23.67;;;7.70;99.90;;;;;;5158339;28;20209;-51
2021/12/30 05:48:18;;;;;;;45.40;22.47;;;7.70;99.90;;;;;;5186819;28;20176;-49
2021/12/30 05:50:49;;;;;;;40.50;20.30;;;7.70;99.90;;;;;;5168175;28;20546;-48
2021/12/30 05:53:20;;;;;;;59.50;24.80;;;7.70;99.90;;;;;;5186856;28;20601;-50
2021/12/30 05:55:51;;;;;;;53.27;22.70;;;7.70;99.90;;;;;;5183834;28;20201;-49
2021/12/30 05:58:21;;;;;;;58.33;24.03;;;7.70;99.90;;;;;;5186034;28;20801;-51
2021/12/30 06:00:53;;;;;;;50.93;23.23;;;7.70;99.90;;;;;;5162776;28;20200;-49
2021/12/30 06:03:24;;;;;;;60.73;23.07;;;7.70;99.90;;;;;;5180956;28;20242;-50
2021/12/30 06:05:54;;;;;;;47.27;21.73;;;7.80;99.90;;;;;;5188174;28;20927;-49
2021/12/30 06:08:25;;;;;;;37.10;20.53;;;7.80;99.90;;;;;;5169371;28;20176;-48
2021/12/30 06:10:55;;;;;;;41.13;21.73;;;7.70;99.90;;;;;;5181295;28;20219;-50
2021/12/30 06:13:26;;;;;;;37.60;20.37;;;7.80;99.90;;;;;;5167341;28;20563;-48
2021/12/30 06:15:56;;;;;;;36.37;18.90;;;7.80;99.90;;;;;;5182606;28;20205;-49
2021/12/30 06:18:27;;;;;;;54.20;19.73;;;7.80;99.90;;;;;;5184184;28;20185;-51
2021/12/30 06:20:58;;;;;;;39.13;20.17;;;7.80;99.90;;;;;;5193062;28;20200;-50
2021/12/30 06:23:28;;;;;;;46.20;21.03;;;7.80;99.90;;;;;;5172045;28;20180;-50
2021/12/30 06:25:59;;;;;;;52.33;22.47;;;7.80;99.90;;;;;;5189259;28;20298;-50
2021/12/30 06:28:29;;;;;;;66.53;21.60;;;7.90;99.90;;;;;;5180941;28;20231;-50
2021/12/30 06:31:00;;;;;;;41.40;19.87;;;7.90;99.90;;;;;;5184646;28;21024;-52
2021/12/30 06:33:30;;;;;;;36.80;18.50;;;7.90;99.90;;;;;;5167857;28;20565;-49
2021/12/30 06:36:01;;;;;;;37.77;19.73;;;7.80;99.90;;;;;;5188880;28;20235;-52
2021/12/30 06:38:32;;;;;;;41.97;19.87;;;7.80;99.90;;;;;;5187901;28;20192;-51
2021/12/30 06:41:04;;;;;;;46.00;19.30;;;7.90;99.90;;;;;;5153086;28;20204;-50
2021/12/30 06:43:34;;;;;;;40.20;18.00;;;7.70;99.90;;;;;;5169325;28;20439;-52
2021/12/30 06:46:05;;;;;;;31.53;16.43;;;7.70;99.90;;;;;;5173402;28;20821;-50
2021/12/30 06:48:37;;;;;;;30.40;15.60;;;7.60;99.90;;;;;;5179787;28;20279;-51
2021/12/30 06:51:08;;;;;;;36.80;16.30;;;7.50;99.90;;;;;;5187001;28;20427;-50
2021/12/30 06:53:38;;;;;;;30.80;16.83;;;7.30;99.90;;;;;;5185294;28;20439;-50
2021/12/30 06:56:09;;;;;;;45.43;19.23;;;7.30;99.90;;;;;;5181957;28;20624;-50
2021/12/30 06:58:39;;;;;;;35.30;17.10;;;7.20;99.90;;;;;;5184096;28;20192;-49
2021/12/30 07:01:10;;;;;;;36.03;18.00;;;7.20;99.90;;;;;;5185386;28;20196;-50
2021/12/30 07:03:40;;;;;;;35.20;16.10;;;7.10;99.90;;;;;;5180667;28;20184;-49
2021/12/30 07:06:11;;;;;;;37.77;16.73;;;7.10;99.90;;;;;;5149573;28;20212;-50
2021/12/30 07:08:42;;;;;;;32.47;17.40;;;7.00;99.90;;;;;;5177936;28;20269;-49
2021/12/30 07:11:12;;;;;;;35.70;18.40;;;7.00;99.90;;;;;;5168058;28;20443;-49
2021/12/30 07:13:43;;;;;;;35.77;17.67;;;6.90;99.90;;;;;;5164657;28;20609;-50
2021/12/30 07:16:13;;;;;;;36.60;18.10;;;6.90;99.90;;;;;;5179268;28;20204;-50
2021/12/30 07:18:44;;;;;;;29.77;16.10;;;6.90;99.90;;;;;;5166147;28;20184;-50
2021/12/30 07:21:15;;;;;;;35.50;18.30;;;6.90;99.90;;;;;;5183651;28;20311;-50
2021/12/30 07:23:45;;;;;;;34.00;17.60;;;6.80;99.90;;;;;;5185383;28;20180;-51
2021/12/30 07:26:16;;;;;;;53.87;20.83;;;6.80;99.90;;;;;;5181020;28;20208;-50
2021/12/30 07:28:47;;;;;;;52.90;23.50;;;6.90;99.90;;;;;;5178997;28;20188;-51
2021/12/30 07:31:18;;;;;;;53.33;20.83;;;7.10;99.90;;;;;;5184370;28;20195;-50
2021/12/30 07:33:49;;;;;;;45.40;19.07;;;7.20;99.90;;;;;;5186099;28;20419;-52
2021/12/30 07:36:19;;;;;;;44.03;19.80;;;7.30;99.90;;;;;;5159522;28;20671;-50
2021/12/30 07:38:50;;;;;;;36.77;20.00;;;7.30;99.90;;;;;;5156644;28;20239;-50
2021/12/30 07:41:21;;;;;;;45.73;19.03;;;7.40;99.90;;;;;;5176111;28;20214;-51
2021/12/30 07:43:51;;;;;;;43.40;19.27;;;7.40;99.90;;;;;;5171849;28;20184;-50
2021/12/30 07:46:22;;;;;;;45.63;18.83;;;7.50;99.90;;;;;;5169567;28;20231;-51
2021/12/30 07:48:52;;;;;;;42.23;19.70;;;7.60;99.90;;;;;;5171583;28;20184;-50
2021/12/30 07:51:23;;;;;;;40.03;17.00;;;7.60;99.90;;;;;;5178802;28;20184;-53
2021/12/30 07:53:53;;;;;;;35.73;18.93;;;7.60;99.90;;;;;;5174257;28;20683;-52
2021/12/30 07:56:24;;;;;;;39.30;17.90;;;7.60;99.90;;;;;;5174904;28;20243;-50
2021/12/30 07:58:55;;;;;;;45.97;18.53;;;7.50;99.90;;;;;;5178172;28;20673;-49
2021/12/30 08:01:25;;;;;;;31.90;17.13;;;7.50;99.90;;;;;;5178738;28;20200;-50
2021/12/30 08:03:56;;;;;;;31.70;15.97;;;7.40;99.90;;;;;;5183697;28;20259;-49
2021/12/30 08:06:28;;;;;;;33.13;15.53;;;7.40;99.90;;;;;;5162580;28;20207;-50
2021/12/30 08:08:58;;;;;;;42.83;17.37;;;7.40;99.90;;;;;;5156488;28;20191;-50
2021/12/30 08:11:29;;;;;;;42.07;16.50;;;7.40;99.90;;;;;;5165812;28;20443;-50
2021/12/30 08:14:00;;;;;;;52.67;19.97;;;7.40;99.90;;;;;;5174648;28;20185;-50
2021/12/30 08:16:30;;;;;;;51.47;20.70;;;7.40;99.90;;;;;;5177136;28;20208;-51
2021/12/30 08:19:01;;;;;;;53.57;19.20;;;7.50;99.90;;;;;;5179130;28;20268;-49
2021/12/30 08:21:31;;;;;;;39.73;16.80;;;7.60;99.90;;;;;;5163539;28;20208;-50
2021/12/30 08:24:02;;;;;;;34.97;16.83;;;7.60;99.90;;;;;;5176783;28;20246;-49
2021/12/30 08:26:32;;;;;;;31.43;16.70;;;7.70;99.90;;;;;;5158893;28;20196;-49
2021/12/30 08:29:04;;;;;;;28.10;15.57;;;7.80;99.90;;;;;;5175548;28;20216;-49
2021/12/30 08:31:36;;;;;;;38.67;17.43;;;7.80;99.90;;;;;;5174622;28;20638;-49
2021/12/30 08:34:06;;;;;;;29.33;14.00;;;7.90;99.90;;;;;;5174201;28;20455;-50
2021/12/30 08:36:37;;;;;;;43.40;15.97;;;7.90;99.90;;;;;;5144527;23;20520;-51
2021/12/30 08:39:07;;;;;;;34.27;16.57;;;8.00;99.90;;;;;;5133066;28;20281;-52
2021/12/30 08:41:39;;;;;;;24.73;14.93;;;8.00;99.90;;;;;;5111747;28;20226;-53
2021/12/30 08:44:10;;;;;;;34.17;16.33;;;8.00;99.90;;;;;;5127033;28;20197;-52
2021/12/30 08:46:40;;;;;;;30.17;14.57;;;8.10;99.90;;;;;;5117995;28;21021;-53
2021/12/30 08:49:11;;;;;;;30.43;14.70;;;8.10;99.90;;;;;;5114323;28;20286;-53
2021/12/30 08:51:41;;;;;;;25.03;14.03;;;8.20;99.90;;;;;;5116488;28;20207;-51
2021/12/30 08:54:12;;;;;;;27.50;13.83;;;8.10;99.90;;;;;;5117032;28;20249;-52
2021/12/30 08:56:42;;;;;;;19.67;11.97;;;8.20;99.90;;;;;;5116970;28;20211;-52
2021/12/30 08:59:14;;;;;;;21.83;12.50;;;8.20;99.90;;;;;;5125642;28;20194;-52
2021/12/30 09:01:44;;;;;;;20.40;11.30;;;8.30;99.90;;;;;;5115389;28;20293;-52
2021/12/30 09:04:15;;;;;;;16.10;11.07;;;8.30;99.90;;;;;;5112256;28;20446;-52
2021/12/30 09:06:45;;;;;;;29.47;14.23;;;8.40;99.90;;;;;;5117826;28;20210;-53
2021/12/30 09:09:16;;;;;;;22.33;13.40;;;8.40;99.90;;;;;;5118576;28;20176;-53
2021/12/30 09:11:47;;;;;;;46.10;16.67;;;8.40;99.90;;;;;;5120366;28;20606;-52
2021/12/30 09:14:18;;;;;;;42.47;15.90;;;8.40;99.90;;;;;;5123969;28;20194;-52
2021/12/30 09:16:49;;;;;;;36.70;14.73;;;8.50;99.90;;;;;;5119993;28;20474;-51
2021/12/30 09:19:20;;;;;;;31.60;15.57;;;8.50;99.90;;;;;;5120779;28;20182;-52
2021/12/30 09:21:51;;;;;;;31.33;14.33;;;8.60;99.90;;;;;;5117177;28;20477;-52
2021/12/30 09:24:21;;;;;;;22.43;13.07;;;8.60;99.90;;;;;;5117895;28;20270;-52
2021/12/30 09:26:51;;;;;;;38.43;16.37;;;8.70;99.90;;;;;;5115717;28;20265;-51
2021/12/30 09:29:22;;;;;;;33.90;16.57;;;8.80;99.90;;;;;;5123467;28;20167;-51
2021/12/30 09:31:53;;;;;;;21.97;12.40;;;8.90;99.90;;;;;;5114414;28;20197;-51
2021/12/30 09:34:23;;;;;;;29.23;12.57;;;8.90;99.90;;;;;;5125685;28;20612;-51
2021/12/30 09:36:55;;;;;;;33.07;13.30;;;9.00;99.90;;;;;;5118821;28;20233;-51
2021/12/30 09:39:26;;;;;;;21.77;13.00;;;9.00;99.90;;;;;;5123896;28;20194;-53
2021/12/30 09:41:57;;;;;;;18.90;11.63;;;9.10;99.90;;;;;;5118788;28;20460;-51
2021/12/30 09:44:27;;;;;;;18.40;10.27;;;9.10;99.90;;;;;;5124133;28;20186;-51
2021/12/30 09:46:58;;;;;;;29.03;11.47;;;9.10;99.90;;;;;;5120475;28;20654;-51
2021/12/30 09:49:28;;;;;;;31.47;13.73;;;9.10;99.90;;;;;;5120171;28;20626;-51
2021/12/30 09:51:59;;;;;;;27.77;11.17;;;9.10;99.90;;;;;;5121379;28;20201;-52
2021/12/30 09:54:30;;;;;;;25.03;12.13;;;9.20;99.90;;;;;;5117840;28;21737;-50
2021/12/30 09:57:00;;;;;;;29.30;12.50;;;9.20;99.90;;;;;;5134567;28;20269;-51
2021/12/30 09:59:32;;;;;;;11.40;9.40;;;9.30;99.90;;;;;;5127633;28;20438;-53
2021/12/30 10:02:02;;;;;;;20.97;11.80;;;9.20;99.90;;;;;;5116797;28;20217;-51
2021/12/30 10:04:35;;;;;;;28.20;12.47;;;9.30;99.90;;;;;;5121656;28;20447;-51
2021/12/30 10:07:19;;;;;;;22.30;11.00;;;9.30;99.90;;;;;;5116906;28;20235;-53
2021/12/30 10:09:52;;;;;;;18.30;9.37;;;9.30;99.90;;;;;;5123175;29;20435;-53
2021/12/30 10:12:44;;;;;;;19.03;10.17;;;9.20;99.90;;;;;;5116489;28;20883;-53
2021/12/30 10:15:15;;;;;;;14.70;9.80;;;9.30;99.90;;;;;;5119972;28;20444;-52
2021/12/30 10:17:55;;;;;;;24.50;13.30;;;9.30;99.90;;;;;;5119254;28;20914;-52
2021/12/30 10:20:28;;;;;;;23.03;12.27;;;9.30;99.90;;;;;;5113685;28;20938;-53
2021/12/30 10:23:12;;;;;;;30.80;13.77;;;9.30;99.90;;;;;;5117347;28;20515;-50
2021/12/30 10:25:46;;;;;;;26.30;11.70;;;9.20;99.90;;;;;;5115460;28;20462;-51
2021/12/30 10:28:33;;;;;;;24.40;14.07;;;9.20;99.90;;;;;;5114766;28;21051;-51
2021/12/30 10:31:13;;;;;;;24.50;12.60;;;9.20;99.90;;;;;;5119350;28;20465;-53
2021/12/30 10:34:04;;;;;;;15.87;10.93;;;9.30;99.90;;;;;;5114572;28;21025;-51
2021/12/30 10:36:45;;;;;;;19.70;10.23;;;9.30;99.90;;;;;;5135386;28;20472;-52
2021/12/30 10:39:19;;;;;;;26.37;12.40;;;9.30;99.90;;;;;;5125529;28;20433;-51
2021/12/30 10:41:52;;;;;;;17.57;10.10;;;9.40;99.90;;;;;;5134704;28;20520;-52
2021/12/30 10:44:23;;;;;;;23.00;11.37;;;9.50;99.90;;;;;;5137758;28;20429;-52
2021/12/30 10:46:54;;;;;;;16.93;10.00;;;9.50;99.90;;;;;;5139869;28;20460;-51
2021/12/30 10:49:27;;;;;;;25.70;11.53;;;9.60;99.90;;;;;;5139097;28;20266;-53
2021/12/30 10:51:59;;;;;;;26.13;11.37;;;9.60;99.90;;;;;;5135396;28;20471;-52
2021/12/30 10:54:33;;;;;;;26.70;12.00;;;9.70;99.90;;;;;;5141733;28;20467;-51
2021/12/30 10:57:08;;;;;;;28.70;11.07;;;9.70;99.90;;;;;;5140814;28;20453;-52
2021/12/30 10:59:44;;;;;;;37.07;13.60;;;9.70;99.90;;;;;;5127648;28;20982;-52
2021/12/30 11:02:23;;;;;;;24.90;11.40;;;9.70;99.90;;;;;;5117417;28;20579;-54
2021/12/30 11:04:57;;;;;;;26.97;12.10;;;9.70;99.90;;;;;;5138523;28;20859;-52
2021/12/30 11:07:47;;;;;;;36.90;13.30;;;9.70;99.90;;;;;;5118514;28;21013;-51
2021/12/30 11:10:32;;;;;;;26.70;12.40;;;9.70;99.90;;;;;;5123840;28;20848;-52
2021/12/30 11:13:11;;;;;;;18.07;10.90;;;9.60;99.90;;;;;;5136990;28;20437;-52
2021/12/30 11:15:41;;;;;;;18.73;11.67;;;9.70;99.90;;;;;;5122774;28;20457;-52
2021/12/30 11:18:19;;;;;;;22.63;10.93;;;9.70;99.90;;;;;;5121504;28;20449;-53
2021/12/30 11:20:49;;;;;;;32.77;9.87;;;9.70;99.90;;;;;;5141819;28;20288;-54
2021/12/30 11:23:20;;;;;;;27.40;10.50;;;9.70;99.90;;;;;;5120667;28;20496;-55
2021/12/30 11:25:51;;;;;;;26.23;10.67;;;9.70;99.90;;;;;;5119280;28;20214;-52
2021/12/30 11:28:22;;;;;;;25.10;11.20;;;9.70;99.90;;;;;;5123911;28;20258;-52
2021/12/30 11:30:52;;;;;;;22.77;10.70;;;9.70;99.90;;;;;;5142975;28;20442;-51
2021/12/30 11:33:23;;;;;;;22.17;10.60;;;9.80;99.90;;;;;;5139446;28;20181;-53
2021/12/30 11:35:54;;;;;;;16.67;9.57;;;9.80;99.90;;;;;;5125908;28;20271;-52
2021/12/30 11:38:25;;;;;;;16.80;9.90;;;9.70;99.90;;;;;;5114519;28;20222;-52
2021/12/30 11:40:55;;;;;;;35.37;9.80;;;9.80;99.90;;;;;;5139137;28;20592;-52
2021/12/30 11:43:41;;;;;;;14.47;9.40;;;9.80;99.90;;;;;;5139741;28;20232;-52
2021/12/30 11:46:38;;;;;;;25.00;11.30;;;9.80;99.90;;;;;;5141549;28;20576;-54
2021/12/30 11:49:12;;;;;;;19.40;9.40;;;9.80;99.90;;;;;;5122528;28;20472;-52
2021/12/30 11:51:45;;;;;;;18.73;10.30;;;9.80;99.90;;;;;;5117482;28;20532;-52
2021/12/30 11:54:41;;;;;;;25.73;9.90;;;9.70;99.90;;;;;;5123809;28;20501;-53
2021/12/30 11:57:34;;;;;;;20.40;10.20;;;9.80;99.90;;;;;;5116174;28;20473;-52
2021/12/30 12:00:36;;;;;;;22.13;9.30;;;9.80;99.90;;;;;;5120529;28;20930;-51
2021/12/30 12:03:30;;;;;;;13.93;8.63;;;9.80;99.90;;;;;;5140904;28;20897;-53
2021/12/30 12:06:04;;;;;;;23.77;9.43;;;9.90;99.90;;;;;;5122455;28;20461;-53
2021/12/30 12:08:44;;;;;;;27.57;11.60;;;9.80;99.90;;;;;;5120418;28;20455;-53
2021/12/30 12:11:25;;;;;;;22.93;11.10;;;9.80;99.90;;;;;;5124368;28;20445;-52
2021/12/30 12:14:14;;;;;;;24.60;11.50;;;9.80;99.90;;;;;;5144479;28;20976;-52
2021/12/30 12:17:04;;;;;;;20.20;11.50;;;9.70;99.90;;;;;;5137931;28;20987;-52
2021/12/30 12:19:47;;;;;;;29.63;13.07;;;9.70;99.90;;;;;;5145396;28;20510;-53
2021/12/30 12:22:17;;;;;;;17.90;11.30;;;9.70;99.90;;;;;;5142266;28;20524;-53
2021/12/30 12:25:08;;;;;;;25.10;12.70;;;9.70;99.90;;;;;;5145280;28;20449;-54
2021/12/30 12:27:49;;;;;;;22.60;11.20;;;9.70;99.90;;;;;;5138358;28;20260;-53
2021/12/30 12:30:30;;;;;;;20.70;10.33;;;9.70;99.90;;;;;;5137606;28;20475;-53
2021/12/30 12:33:24;;;;;;;22.73;12.70;;;9.70;99.90;;;;;;5132054;28;20438;-54
2021/12/30 12:35:56;;;;;;;25.00;13.00;;;9.70;99.90;;;;;;5118211;28;20463;-51
2021/12/30 12:38:46;;;;;;;13.57;9.50;;;9.70;99.90;;;;;;5121020;28;20469;-52
2021/12/30 12:41:20;;;;;;;19.50;10.57;;;9.60;99.90;;;;;;5120019;28;20488;-53
2021/12/30 12:44:21;;;;;;;26.27;12.03;;;9.60;99.90;;;;;;5133709;28;20434;-51
2021/12/30 12:46:52;;;;;;;19.47;12.63;;;9.60;99.90;;;;;;5128024;28;20507;-52
2021/12/30 12:49:31;;;;;;;34.93;14.07;;;9.60;99.90;;;;;;5139662;28;20468;-51
2021/12/30 12:52:04;;;;;;;34.67;15.67;;;9.50;99.90;;;;;;5130008;28;20937;-54
2021/12/30 12:54:53;;;;;;;25.10;13.30;;;9.50;99.90;;;;;;5133693;28;20437;-54
2021/12/30 12:57:24;;;;;;;27.33;13.10;;;9.50;99.90;;;;;;5111846;28;20567;-55
2021/12/30 12:59:56;;;;;;;20.13;11.80;;;9.40;99.90;;;;;;5120910;28;20556;-52
2021/12/30 13:02:26;;;;;;;29.47;10.97;;;9.40;99.90;;;;;;5119919;28;20206;-52
2021/12/30 13:05:14;;;;;;;27.07;12.60;;;9.40;99.90;;;;;;5140325;28;20437;-53
2021/12/30 13:07:49;;;;;;;25.13;11.53;;;9.40;99.90;;;;;;5136463;28;20508;-51
2021/12/30 13:10:20;;;;;;;23.07;11.20;;;9.40;99.90;;;;;;5134715;28;20568;-50